createdAt,value
2019-03-20T00:00:03.372Z,89.34
2019-03-20T00:01:03.365Z,89.56
2019-03-20T00:02:03.348Z,89.34
2019-03-20T00:03:03.356Z,89.24
2019-03-20T00:04:03.328Z,89.03
2019-03-20T00:05:03.316Z,89.03
2019-03-20T00:06:03.308Z,89.45
2019-03-20T00:07:03.292Z,88.62
2019-03-20T00:08:03.285Z,89.56
2019-03-20T00:09:03.267Z,89.45
2019-03-20T00:10:03.265Z,89.34
2019-03-20T00:11:03.246Z,89.45
2019-03-20T00:12:03.238Z,89.24
2019-03-20T00:13:03.228Z,89.66
2019-03-20T00:14:03.224Z,89.81
2019-03-20T00:15:03.206Z,89.49
2019-03-20T00:16:03.201Z,89.81
2019-03-20T00:17:04.088Z,89.59
2019-03-20T00:18:03.168Z,89.28
2019-03-20T00:19:03.164Z,89.45
2019-03-20T00:20:03.162Z,89.49
2019-03-20T00:21:03.140Z,89.49
2019-03-20T00:22:03.146Z,89.87
2019-03-20T00:23:03.123Z,89.59
2019-03-20T00:24:03.106Z,89.49
2019-03-20T00:25:03.105Z,89.49
2019-03-20T00:26:03.088Z,89.49
2019-03-20T00:27:03.084Z,90.22
2019-03-20T00:28:03.068Z,90.12
2019-03-20T00:29:03.060Z,89.91
2019-03-20T00:30:03.048Z,90.01
2019-03-20T00:31:03.045Z,89.81
2019-03-20T00:32:03.026Z,90.01
2019-03-20T00:33:03.017Z,89.91
2019-03-20T00:34:03.002Z,89.91
2019-03-20T00:35:02.994Z,89.91
2019-03-20T00:36:02.987Z,90.12
2019-03-20T00:37:02.980Z,89.81
2019-03-20T00:38:02.967Z,89.59
2019-03-20T00:39:02.952Z,90.01
2019-03-20T00:40:02.938Z,89.70
2019-03-20T00:41:02.921Z,89.91
2019-03-20T00:42:02.930Z,89.70
2019-03-20T00:43:02.919Z,89.49
2019-03-20T00:44:02.897Z,89.95
2019-03-20T00:45:02.891Z,90.12
2019-03-20T00:46:02.877Z,89.91
2019-03-20T00:47:02.864Z,90.68
2019-03-20T00:48:02.856Z,90.53
2019-03-20T00:49:02.838Z,90.58
2019-03-20T00:50:02.829Z,90.58
2019-03-20T00:51:02.818Z,90.58
2019-03-20T00:52:02.810Z,90.85
2019-03-20T00:53:02.798Z,90.85
2019-03-20T00:54:02.802Z,90.75
2019-03-20T00:55:02.782Z,90.89
2019-03-20T00:56:02.777Z,90.75
2019-03-20T00:57:02.754Z,91.10
2019-03-20T00:58:02.742Z,90.78
2019-03-20T00:59:02.738Z,90.68
2019-03-20T01:00:02.724Z,91.10
2019-03-20T01:01:02.717Z,91.20
2019-03-20T01:02:02.710Z,91.94
2019-03-20T01:03:02.689Z,91.52
2019-03-20T01:04:02.679Z,91.87
2019-03-20T01:05:12.232Z,92.04
2019-03-20T01:06:03.662Z,92.29
2019-03-20T01:07:02.652Z,92.29
2019-03-20T01:08:02.634Z,92.25
2019-03-20T01:09:02.624Z,92.35
2019-03-20T01:10:02.618Z,92.35
2019-03-20T01:11:02.610Z,92.29
2019-03-20T01:12:02.602Z,92.14
2019-03-20T01:13:02.593Z,92.71
2019-03-20T01:14:02.576Z,92.40
2019-03-20T01:15:02.560Z,92.50
2019-03-20T01:16:02.556Z,92.92
2019-03-20T01:17:02.562Z,92.60
2019-03-20T01:18:02.534Z,92.82
2019-03-20T01:19:02.526Z,93.02
2019-03-20T01:20:02.509Z,92.82
2019-03-20T01:21:02.498Z,92.82
2019-03-20T01:22:02.486Z,93.13
2019-03-20T01:23:02.482Z,92.71
2019-03-20T01:24:02.472Z,92.50
2019-03-20T01:25:02.456Z,92.60
2019-03-20T01:26:02.446Z,92.50
2019-03-20T01:27:02.434Z,92.82
2019-03-20T01:28:02.428Z,92.08
2019-03-20T01:29:02.410Z,92.71
2019-03-20T01:30:02.410Z,92.50
2019-03-20T01:31:02.394Z,92.50
2019-03-20T01:32:02.386Z,92.71
2019-03-20T01:33:02.373Z,92.40
2019-03-20T01:34:02.373Z,92.50
2019-03-20T01:35:02.352Z,92.50
2019-03-20T01:36:02.343Z,92.50
2019-03-20T01:37:02.328Z,92.40
2019-03-20T01:38:02.322Z,92.71
2019-03-20T01:39:02.306Z,92.50
2019-03-20T01:40:02.294Z,92.71
2019-03-20T01:41:02.303Z,92.29
2019-03-20T01:42:02.271Z,92.71
2019-03-20T01:43:02.266Z,92.71
2019-03-20T01:44:02.254Z,91.87
2019-03-20T01:45:02.278Z,92.08
2019-03-20T01:46:02.230Z,91.98
2019-03-20T01:47:02.232Z,92.60
2019-03-20T01:48:02.213Z,92.71
2019-03-20T01:49:02.208Z,92.54
2019-03-20T01:50:02.189Z,92.85
2019-03-20T01:51:02.184Z,93.07
2019-03-20T01:52:02.166Z,93.38
2019-03-20T01:53:02.167Z,93.54
2019-03-20T01:54:02.154Z,93.59
2019-03-20T01:55:02.145Z,93.17
2019-03-20T01:56:02.136Z,93.07
2019-03-20T01:57:02.143Z,93.17
2019-03-20T01:58:02.108Z,92.96
2019-03-20T01:59:02.102Z,92.85
2019-03-20T02:00:02.094Z,92.65
2019-03-20T02:01:02.077Z,92.82
2019-03-20T02:02:02.064Z,92.50
2019-03-20T02:03:02.053Z,92.54
2019-03-20T02:04:02.051Z,92.54
2019-03-20T02:05:02.029Z,92.44
2019-03-20T02:06:02.022Z,92.65
2019-03-20T02:07:02.006Z,92.40
2019-03-20T02:08:02.004Z,92.50
2019-03-20T02:09:01.986Z,92.85
2019-03-20T02:10:01.979Z,92.13
2019-03-20T02:11:01.971Z,92.85
2019-03-20T02:12:01.960Z,93.07
2019-03-20T02:13:01.947Z,93.27
2019-03-20T02:14:01.948Z,93.17
2019-03-20T02:15:01.932Z,93.17
2019-03-20T02:16:01.920Z,93.17
2019-03-20T02:17:01.902Z,93.27
2019-03-20T02:18:01.892Z,93.32
2019-03-20T02:19:01.883Z,92.85
2019-03-20T02:20:01.878Z,93.07
2019-03-20T02:21:01.872Z,93.27
2019-03-20T02:22:01.870Z,93.27
2019-03-20T02:23:01.851Z,93.42
2019-03-20T02:24:01.834Z,93.38
2019-03-20T02:25:01.821Z,93.63
2019-03-20T02:26:01.810Z,93.48
2019-03-20T02:27:01.804Z,93.74
2019-03-20T02:28:01.793Z,93.32
2019-03-20T02:29:01.774Z,93.32
2019-03-20T02:30:01.864Z,93.07
2019-03-20T02:31:01.756Z,93.70
2019-03-20T02:32:01.797Z,93.48
2019-03-20T02:33:01.761Z,93.27
2019-03-20T02:34:01.733Z,93.70
2019-03-20T02:35:02.016Z,93.59
2019-03-20T02:36:01.701Z,93.74
2019-03-20T02:37:01.703Z,93.63
2019-03-20T02:38:01.687Z,93.42
2019-03-20T02:39:01.699Z,93.01
2019-03-20T02:40:01.671Z,93.11
2019-03-20T02:41:01.648Z,93.63
2019-03-20T02:42:01.646Z,93.42
2019-03-20T02:43:01.632Z,93.52
2019-03-20T02:44:01.632Z,93.84
2019-03-20T02:45:01.609Z,93.63
2019-03-20T02:46:01.598Z,93.63
2019-03-20T02:47:01.594Z,93.84
2019-03-20T02:48:01.598Z,93.80
2019-03-20T02:49:01.563Z,93.59
2019-03-20T02:50:01.563Z,93.59
2019-03-20T02:51:01.555Z,93.74
2019-03-20T02:52:03.874Z,93.95
2019-03-20T02:53:01.534Z,92.69
2019-03-20T02:54:01.522Z,93.84
2019-03-20T02:55:01.509Z,93.59
2019-03-20T02:56:01.508Z,94.01
2019-03-20T02:57:01.485Z,93.63
2019-03-20T02:58:01.468Z,93.48
2019-03-20T02:59:01.462Z,93.59
2019-03-20T03:00:01.451Z,93.42
2019-03-20T03:01:01.451Z,93.48
2019-03-20T03:02:01.440Z,93.74
2019-03-20T03:03:01.419Z,93.74
2019-03-20T03:04:01.407Z,93.52
2019-03-20T03:05:01.424Z,93.11
2019-03-20T03:06:07.000Z,93.84
2019-03-20T03:07:02.373Z,93.74
2019-03-20T03:08:01.361Z,93.52
2019-03-20T03:09:01.355Z,93.11
2019-03-20T03:10:01.348Z,93.63
2019-03-20T03:11:01.339Z,93.74
2019-03-20T03:12:01.336Z,93.52
2019-03-20T03:13:01.358Z,93.74
2019-03-20T03:14:01.305Z,93.52
2019-03-20T03:15:01.296Z,93.63
2019-03-20T03:16:01.287Z,93.52
2019-03-20T03:17:01.281Z,93.42
2019-03-20T03:18:01.262Z,93.52
2019-03-20T03:19:01.254Z,93.52
2019-03-20T03:20:01.237Z,93.11
2019-03-20T03:21:01.224Z,93.52
2019-03-20T03:22:01.216Z,93.74
2019-03-20T03:23:01.223Z,93.63
2019-03-20T03:24:01.206Z,93.52
2019-03-20T03:25:01.200Z,93.74
2019-03-20T03:26:01.178Z,93.52
2019-03-20T03:27:01.170Z,93.52
2019-03-20T03:28:01.154Z,93.63
2019-03-20T03:29:01.141Z,93.63
2019-03-20T03:30:01.156Z,93.63
2019-03-20T03:31:01.122Z,93.74
2019-03-20T03:32:01.135Z,93.01
2019-03-20T03:33:01.180Z,93.74
2019-03-20T03:34:01.096Z,93.84
2019-03-20T03:35:01.214Z,93.01
2019-03-20T03:36:01.073Z,93.01
2019-03-20T03:37:01.100Z,93.78
2019-03-20T03:38:01.050Z,93.42
2019-03-20T03:39:01.041Z,93.63
2019-03-20T03:40:01.036Z,94.05
2019-03-20T03:41:01.051Z,94.26
2019-03-20T03:42:01.014Z,93.78
2019-03-20T03:43:00.992Z,94.51
2019-03-20T03:44:00.986Z,94.57
2019-03-20T03:45:00.981Z,94.78
2019-03-20T03:46:00.967Z,94.15
2019-03-20T03:47:00.959Z,94.57
2019-03-20T03:48:00.942Z,95.03
2019-03-20T03:49:00.930Z,95.14
2019-03-20T03:50:00.921Z,94.72
2019-03-20T03:51:00.916Z,95.03
2019-03-20T03:52:00.908Z,94.72
2019-03-20T03:53:00.892Z,94.93
2019-03-20T03:54:00.881Z,95.03
2019-03-20T03:55:00.982Z,95.03
2019-03-20T03:56:00.865Z,95.03
2019-03-20T03:57:00.850Z,95.03
2019-03-20T03:58:00.847Z,95.25
2019-03-20T03:59:00.845Z,94.99
2019-03-20T04:00:00.817Z,94.93
2019-03-20T04:01:00.810Z,94.78
2019-03-20T04:02:00.790Z,94.78
2019-03-20T04:03:00.791Z,94.99
2019-03-20T04:04:00.778Z,94.72
2019-03-20T04:05:00.762Z,94.36
2019-03-20T04:06:00.755Z,94.26
2019-03-20T04:07:00.744Z,94.15
2019-03-20T04:08:00.730Z,94.36
2019-03-20T04:09:00.717Z,93.95
2019-03-20T04:10:00.713Z,94.26
2019-03-20T04:11:00.697Z,93.95
2019-03-20T04:12:00.691Z,93.63
2019-03-20T04:13:00.671Z,93.63
2019-03-20T04:14:00.666Z,94.05
2019-03-20T04:15:00.657Z,93.52
2019-03-20T04:16:00.651Z,94.30
2019-03-20T04:17:00.655Z,93.84
2019-03-20T04:18:00.623Z,94.15
2019-03-20T04:19:00.613Z,94.15
2019-03-20T04:20:00.608Z,93.88
2019-03-20T04:21:00.606Z,94.09
2019-03-20T04:22:00.595Z,94.20
2019-03-20T04:23:00.573Z,94.62
2019-03-20T04:24:00.558Z,95.03
2019-03-20T04:25:00.560Z,95.14
2019-03-20T04:26:00.533Z,95.03
2019-03-20T04:27:00.537Z,95.07
2019-03-20T04:28:00.516Z,94.87
2019-03-20T04:29:00.509Z,94.97
2019-03-20T04:30:00.499Z,95.60
2019-03-20T04:31:00.485Z,94.97
2019-03-20T04:32:00.481Z,95.50
2019-03-20T04:33:00.468Z,95.56
2019-03-20T04:34:00.451Z,95.56
2019-03-20T04:35:00.488Z,96.02
2019-03-20T04:36:00.437Z,95.87
2019-03-20T04:37:00.437Z,95.66
2019-03-20T04:38:00.409Z,96.02
2019-03-20T04:39:00.410Z,95.45
2019-03-20T04:40:00.515Z,95.56
2019-03-20T04:41:00.381Z,95.66
2019-03-20T04:42:00.380Z,95.45
2019-03-20T04:43:00.356Z,95.25
2019-03-20T04:44:00.354Z,94.93
2019-03-20T04:45:00.335Z,94.93
2019-03-20T04:46:00.327Z,95.03
2019-03-20T04:47:00.308Z,95.14
2019-03-20T04:48:00.296Z,93.88
2019-03-20T04:49:00.286Z,94.20
2019-03-20T04:50:00.294Z,93.67
2019-03-20T04:51:00.271Z,93.88
2019-03-20T04:52:00.262Z,93.99
2019-03-20T04:53:00.252Z,93.78
2019-03-20T04:54:00.246Z,93.71
2019-03-20T04:55:00.339Z,93.88
2019-03-20T04:56:00.226Z,93.46
2019-03-20T04:57:00.209Z,93.36
2019-03-20T04:58:00.192Z,93.46
2019-03-20T04:59:00.183Z,93.36
2019-03-20T05:00:00.318Z,93.15
2019-03-20T05:01:00.163Z,93.36
2019-03-20T05:02:00.149Z,93.67
2019-03-20T05:03:01.104Z,93.57
2019-03-20T05:04:00.178Z,93.67
2019-03-20T05:05:00.338Z,93.46
2019-03-20T05:06:00.111Z,93.67
2019-03-20T05:07:00.099Z,93.67
2019-03-20T05:08:00.086Z,93.88
2019-03-20T05:09:00.074Z,93.88
2019-03-20T05:10:00.067Z,93.57
2019-03-20T05:11:00.070Z,93.88
2019-03-20T05:12:00.043Z,93.78
2019-03-20T05:13:00.037Z,93.30
2019-03-20T05:14:00.024Z,93.57
2019-03-20T05:15:00.016Z,93.61
2019-03-20T05:16:00.002Z,93.67
2019-03-20T05:16:59.993Z,93.57
2019-03-20T05:17:59.974Z,93.88
2019-03-20T05:18:59.966Z,93.67
2019-03-20T05:19:59.962Z,93.88
2019-03-20T05:20:59.948Z,93.57
2019-03-20T05:21:59.939Z,93.67
2019-03-20T05:22:59.927Z,93.67
2019-03-20T05:23:59.916Z,93.57
2019-03-20T05:24:59.902Z,93.67
2019-03-20T05:25:59.894Z,93.99
2019-03-20T05:26:59.891Z,93.99
2019-03-20T05:27:59.874Z,93.78
2019-03-20T05:28:59.869Z,94.20
2019-03-20T05:29:59.860Z,93.82
2019-03-20T05:30:59.834Z,93.99
2019-03-20T05:31:59.834Z,93.88
2019-03-20T05:32:59.816Z,93.99
2019-03-20T05:33:59.808Z,93.78
2019-03-20T05:34:59.797Z,94.20
2019-03-20T05:35:59.786Z,93.74
2019-03-20T05:37:09.972Z,93.42
2019-03-20T05:38:00.776Z,93.84
2019-03-20T05:38:59.787Z,93.74
2019-03-20T05:39:59.745Z,93.32
2019-03-20T05:40:59.735Z,93.42
2019-03-20T05:41:59.720Z,93.63
2019-03-20T05:42:59.711Z,93.52
2019-03-20T05:43:59.699Z,93.52
2019-03-20T05:44:59.705Z,93.21
2019-03-20T05:46:00.523Z,93.32
2019-03-20T05:46:59.677Z,93.52
2019-03-20T05:47:59.666Z,93.11
2019-03-20T05:48:59.648Z,94.15
2019-03-20T05:49:59.634Z,93.84
2019-03-20T05:50:59.624Z,94.05
2019-03-20T05:51:59.621Z,93.84
2019-03-20T05:52:59.602Z,93.84
2019-03-20T05:53:59.594Z,93.74
2019-03-20T05:54:59.583Z,93.74
2019-03-20T05:55:59.570Z,93.90
2019-03-20T05:56:59.570Z,93.70
2019-03-20T05:57:59.551Z,93.90
2019-03-20T05:58:59.535Z,93.80
2019-03-20T05:59:59.525Z,93.48
2019-03-20T06:00:59.520Z,93.54
2019-03-20T06:01:59.514Z,93.65
2019-03-20T06:02:59.500Z,93.54
2019-03-20T06:03:59.490Z,92.92
2019-03-20T06:04:59.473Z,92.92
2019-03-20T06:05:59.467Z,93.29
2019-03-20T06:06:59.453Z,92.88
2019-03-20T06:07:59.444Z,92.77
2019-03-20T06:08:59.436Z,92.88
2019-03-20T06:09:59.427Z,92.52
2019-03-20T06:10:59.408Z,92.10
2019-03-20T06:11:59.404Z,92.00
2019-03-20T06:12:59.385Z,91.79
2019-03-20T06:13:59.380Z,91.37
2019-03-20T06:14:59.369Z,91.47
2019-03-20T06:15:59.356Z,92.00
2019-03-20T06:16:59.343Z,91.96
2019-03-20T06:17:59.353Z,90.70
2019-03-20T06:18:59.330Z,90.95
2019-03-20T06:19:59.312Z,91.16
2019-03-20T06:20:59.311Z,90.81
2019-03-20T06:21:59.296Z,90.70
2019-03-20T06:22:59.282Z,90.50
2019-03-20T06:23:59.275Z,89.97
2019-03-20T06:24:59.270Z,89.76
2019-03-20T06:25:59.253Z,89.41
2019-03-20T06:26:59.242Z,89.37
2019-03-20T06:27:59.228Z,89.06
2019-03-20T06:28:59.224Z,88.98
2019-03-20T06:29:59.208Z,85.94
2019-03-20T06:30:59.205Z,81.45
2019-03-20T06:31:59.184Z,74.36
2019-03-20T06:32:59.948Z,69.13
2019-03-20T06:33:59.169Z,64.68
2019-03-20T06:34:59.155Z,62.15
2019-03-20T06:35:59.154Z,61.07
2019-03-20T06:36:59.134Z,59.19
2019-03-20T06:37:59.134Z,59.08
2019-03-20T06:38:59.117Z,59.31
2019-03-20T06:39:59.104Z,59.59
2019-03-20T06:40:59.098Z,57.15
2019-03-20T06:41:59.080Z,56.30
2019-03-20T06:42:59.069Z,56.71
2019-03-20T06:43:59.060Z,56.87
2019-03-20T06:44:59.052Z,57.10
2019-03-20T06:45:59.037Z,58.34
2019-03-20T06:46:59.028Z,58.50
2019-03-20T06:47:59.016Z,59.17
2019-03-20T06:48:59.010Z,61.41
2019-03-20T06:49:58.988Z,63.43
2019-03-20T06:50:58.983Z,64.73
2019-03-20T06:51:58.970Z,65.69
2019-03-20T06:52:58.968Z,66.57
2019-03-20T06:53:58.951Z,68.12
2019-03-20T06:55:01.003Z,68.57
2019-03-20T06:55:58.925Z,68.70
2019-03-20T06:56:58.918Z,69.12
2019-03-20T06:57:58.903Z,69.22
2019-03-20T06:58:58.911Z,69.84
2019-03-20T06:59:58.885Z,70.15
2019-03-20T07:00:58.870Z,70.47
2019-03-20T07:01:58.856Z,70.57
2019-03-20T07:02:58.851Z,70.15
2019-03-20T07:03:58.839Z,69.64
2019-03-20T07:04:58.828Z,69.64
2019-03-20T07:05:58.821Z,69.95
2019-03-20T07:06:58.806Z,69.57
2019-03-20T07:07:58.795Z,69.40
2019-03-20T07:08:58.780Z,69.67
2019-03-20T07:09:58.769Z,69.09
2019-03-20T07:10:58.776Z,68.95
2019-03-20T07:11:58.759Z,68.74
2019-03-20T07:12:58.735Z,68.95
2019-03-20T07:13:58.728Z,67.40
2019-03-20T07:14:58.714Z,69.16
2019-03-20T07:15:58.707Z,68.54
2019-03-20T07:16:58.699Z,68.19
2019-03-20T07:17:58.679Z,68.09
2019-03-20T07:18:58.672Z,67.75
2019-03-20T07:19:58.665Z,67.96
2019-03-20T07:20:58.668Z,67.30
2019-03-20T07:21:58.640Z,66.79
2019-03-20T07:22:58.650Z,66.76
2019-03-20T07:23:58.620Z,65.49
2019-03-20T07:24:58.606Z,64.95
2019-03-20T07:25:58.593Z,64.12
2019-03-20T07:26:58.586Z,64.50
2019-03-20T07:27:58.586Z,64.81
2019-03-20T07:28:58.581Z,62.93
2019-03-20T07:29:58.548Z,63.72
2019-03-20T07:30:58.547Z,62.77
2019-03-20T07:31:58.531Z,61.94
2019-03-20T07:32:58.527Z,62.43
2019-03-20T07:33:58.527Z,60.65
2019-03-20T07:34:58.507Z,61.55
2019-03-20T07:35:58.499Z,59.88
2019-03-20T07:36:58.480Z,58.21
2019-03-20T07:37:58.482Z,58.15
2019-03-20T07:38:58.463Z,56.64
2019-03-20T07:39:58.452Z,56.05
2019-03-20T07:40:58.434Z,52.75
2019-03-20T07:41:58.426Z,51.23
2019-03-20T07:43:08.166Z,47.27
2019-03-20T07:43:59.402Z,44.95
2019-03-20T07:44:58.399Z,43.63
2019-03-20T07:45:58.392Z,40.33
2019-03-20T07:46:58.362Z,39.87
2019-03-20T07:47:58.353Z,38.35
2019-03-20T07:48:58.352Z,38.50
2019-03-20T07:49:58.336Z,36.11
2019-03-20T07:50:58.333Z,34.29
2019-03-20T07:51:58.320Z,33.75
2019-03-20T07:52:58.315Z,33.40
2019-03-20T07:53:58.294Z,33.07
2019-03-20T07:54:58.288Z,31.60
2019-03-20T07:55:58.276Z,33.17
2019-03-20T07:56:58.268Z,34.12
2019-03-20T07:57:58.248Z,32.88
2019-03-20T07:58:58.239Z,32.97
2019-03-20T07:59:58.230Z,33.36
2019-03-20T08:00:58.216Z,33.05
2019-03-20T08:01:58.208Z,32.95
2019-03-20T08:02:58.198Z,33.22
2019-03-20T08:03:58.184Z,32.07
2019-03-20T08:04:58.176Z,31.05
2019-03-20T08:05:58.166Z,29.75
2019-03-20T08:06:58.151Z,29.84
2019-03-20T08:08:06.798Z,29.80
2019-03-20T08:08:59.132Z,28.91
2019-03-20T08:09:58.121Z,29.81
2019-03-20T08:10:58.112Z,28.89
2019-03-20T08:11:58.102Z,29.17
2019-03-20T08:12:58.094Z,28.58
2019-03-20T08:13:58.098Z,29.19
2019-03-20T08:14:58.066Z,28.27
2019-03-20T08:15:58.058Z,28.12
2019-03-20T08:16:58.046Z,27.30
2019-03-20T08:17:58.036Z,26.31
2019-03-20T08:18:58.037Z,27.19
2019-03-20T08:19:58.022Z,28.57
2019-03-20T08:20:58.006Z,27.77
2019-03-20T08:21:58.003Z,28.19
2019-03-20T08:22:57.990Z,29.43
2019-03-20T08:23:57.976Z,28.41
2019-03-20T08:24:57.982Z,28.14
2019-03-20T08:25:57.984Z,28.18
2019-03-20T08:26:57.946Z,27.06
2019-03-20T08:27:57.932Z,26.57
2019-03-20T08:28:57.928Z,27.22
2019-03-20T08:29:57.926Z,28.08
2019-03-20T08:30:57.908Z,30.64
2019-03-20T08:31:57.894Z,31.01
2019-03-20T08:32:57.880Z,29.94
2019-03-20T08:33:57.881Z,29.14
2019-03-20T08:34:57.873Z,28.32
2019-03-20T08:35:57.866Z,27.29
2019-03-20T08:36:57.862Z,27.24
2019-03-20T08:37:57.837Z,26.12
2019-03-20T08:38:57.871Z,26.15
2019-03-20T08:39:57.814Z,27.01
2019-03-20T08:40:57.814Z,27.91
2019-03-20T08:41:57.804Z,27.98
2019-03-20T08:42:57.810Z,27.06
2019-03-20T08:43:57.784Z,28.00
2019-03-20T08:44:57.770Z,27.83
2019-03-20T08:45:57.758Z,29.25
2019-03-20T08:46:57.755Z,27.75
2019-03-20T08:47:57.734Z,28.36
2019-03-20T08:48:57.734Z,28.23
2019-03-20T08:49:57.730Z,27.31
2019-03-20T08:50:57.718Z,27.11
2019-03-20T08:51:57.700Z,27.45
2019-03-20T08:52:57.692Z,25.98
2019-03-20T08:53:57.685Z,25.74
2019-03-20T08:54:57.686Z,26.35
2019-03-20T08:55:57.664Z,26.04
2019-03-20T08:56:57.652Z,26.29
2019-03-20T08:57:57.646Z,24.81
2019-03-20T08:58:57.632Z,25.76
2019-03-20T08:59:57.622Z,25.35
2019-03-20T09:00:57.615Z,25.43
2019-03-20T09:01:57.604Z,24.81
2019-03-20T09:02:57.697Z,24.09
2019-03-20T09:03:57.646Z,24.29
2019-03-20T09:04:57.588Z,24.37
2019-03-20T09:05:57.563Z,24.50
2019-03-20T09:06:57.573Z,24.11
2019-03-20T09:07:57.545Z,24.62
2019-03-20T09:08:57.541Z,24.63
2019-03-20T09:09:57.522Z,24.57
2019-03-20T09:10:57.521Z,26.52
2019-03-20T09:11:57.505Z,27.64
2019-03-20T09:12:57.496Z,28.72
2019-03-20T09:13:57.491Z,29.41
2019-03-20T09:14:57.482Z,28.03
2019-03-20T09:15:57.470Z,27.00
2019-03-20T09:16:57.468Z,26.35
2019-03-20T09:17:57.446Z,25.95
2019-03-20T09:18:57.444Z,26.32
2019-03-20T09:19:57.427Z,25.32
2019-03-20T09:20:57.424Z,25.23
2019-03-20T09:21:57.406Z,25.51
2019-03-20T09:22:57.394Z,24.24
2019-03-20T09:23:57.390Z,26.06
2019-03-20T09:24:57.382Z,25.84
2019-03-20T09:25:57.367Z,24.75
2019-03-20T09:26:57.358Z,25.89
2019-03-20T09:27:57.352Z,26.18
2019-03-20T09:28:57.352Z,27.11
2019-03-20T09:29:57.334Z,27.00
2019-03-20T09:30:57.330Z,26.88
2019-03-20T09:31:57.342Z,26.15
2019-03-20T09:32:57.299Z,25.12
2019-03-20T09:33:57.333Z,25.60
2019-03-20T09:34:57.290Z,25.74
2019-03-20T09:35:57.294Z,26.04
2019-03-20T09:36:57.272Z,25.42
2019-03-20T09:37:57.280Z,25.42
2019-03-20T09:38:57.256Z,25.10
2019-03-20T09:39:57.241Z,24.66
2019-03-20T09:40:57.234Z,23.86
2019-03-20T09:41:57.226Z,23.85
2019-03-20T09:42:57.216Z,23.18
2019-03-20T09:43:57.218Z,23.32
2019-03-20T09:44:57.188Z,24.13
2019-03-20T09:45:57.268Z,25.05
2019-03-20T09:46:57.172Z,26.34
2019-03-20T09:47:57.177Z,25.23
2019-03-20T09:48:57.162Z,24.10
2019-03-20T09:49:57.152Z,24.46
2019-03-20T09:50:57.134Z,23.72
2019-03-20T09:51:57.123Z,23.77
2019-03-20T09:52:57.124Z,23.28
2019-03-20T09:53:57.113Z,23.78
2019-03-20T09:54:57.102Z,24.49
2019-03-20T09:55:57.096Z,24.39
2019-03-20T09:56:57.081Z,24.89
2019-03-20T09:57:57.074Z,23.78
2019-03-20T09:58:57.064Z,23.76
2019-03-20T09:59:57.063Z,23.75
2019-03-20T10:00:57.044Z,23.52
2019-03-20T10:01:57.039Z,22.94
2019-03-20T10:02:57.047Z,23.83
2019-03-20T10:03:57.018Z,23.14
2019-03-20T10:04:57.009Z,23.65
2019-03-20T10:05:57.002Z,23.74
2019-03-20T10:06:56.991Z,23.74
2019-03-20T10:07:56.987Z,24.60
2019-03-20T10:08:56.977Z,25.90
2019-03-20T10:09:56.961Z,30.15
2019-03-20T10:10:56.954Z,31.24
2019-03-20T10:11:57.589Z,31.56
2019-03-20T10:12:56.930Z,32.06
2019-03-20T10:13:56.932Z,32.35
2019-03-20T10:14:56.922Z,32.24
2019-03-20T10:15:56.909Z,31.34
2019-03-20T10:16:56.903Z,31.03
2019-03-20T10:17:56.891Z,31.20
2019-03-20T10:18:56.878Z,30.85
2019-03-20T10:19:56.872Z,29.64
2019-03-20T10:20:56.866Z,29.52
2019-03-20T10:21:56.851Z,30.05
2019-03-20T10:22:56.839Z,30.95
2019-03-20T10:23:56.825Z,31.34
2019-03-20T10:24:56.820Z,33.03
2019-03-20T10:25:56.811Z,35.01
2019-03-20T10:26:56.808Z,34.30
2019-03-20T10:27:56.790Z,35.43
2019-03-20T10:28:56.778Z,35.92
2019-03-20T10:29:56.773Z,36.10
2019-03-20T10:30:56.766Z,34.45
2019-03-20T10:31:56.751Z,34.94
2019-03-20T10:32:56.750Z,33.80
2019-03-20T10:33:56.728Z,32.38
2019-03-20T10:34:56.726Z,32.90
2019-03-20T10:35:56.712Z,34.24
2019-03-20T10:36:56.702Z,35.30
2019-03-20T10:37:56.697Z,35.38
2019-03-20T10:39:06.039Z,33.85
2019-03-20T10:39:57.668Z,34.69
2019-03-20T10:40:56.667Z,35.36
2019-03-20T10:41:56.650Z,34.34
2019-03-20T10:42:56.654Z,33.59
2019-03-20T10:43:56.638Z,32.26
2019-03-20T10:44:56.632Z,31.88
2019-03-20T10:45:56.636Z,32.20
2019-03-20T10:46:56.609Z,33.53
2019-03-20T10:47:56.591Z,34.59
2019-03-20T10:48:56.632Z,36.49
2019-03-20T10:49:56.578Z,38.04
2019-03-20T10:50:56.572Z,37.90
2019-03-20T10:51:56.559Z,37.20
2019-03-20T10:52:56.550Z,37.68
2019-03-20T10:53:56.536Z,38.29
2019-03-20T10:54:56.534Z,36.72
2019-03-20T10:55:56.514Z,34.37
2019-03-20T10:56:56.522Z,36.08
2019-03-20T10:57:56.494Z,36.35
2019-03-20T10:58:56.482Z,36.32
2019-03-20T10:59:56.472Z,34.69
2019-03-20T11:00:56.467Z,33.89
2019-03-20T11:01:56.453Z,34.20
2019-03-20T11:02:56.454Z,34.81
2019-03-20T11:03:56.439Z,35.13
2019-03-20T11:04:56.416Z,35.58
2019-03-20T11:05:56.408Z,36.30
2019-03-20T11:06:56.405Z,36.22
2019-03-20T11:07:56.404Z,35.19
2019-03-20T11:08:56.384Z,35.30
2019-03-20T11:09:56.372Z,35.92
2019-03-20T11:10:56.362Z,36.62
2019-03-20T11:11:56.348Z,38.19
2019-03-20T11:12:56.342Z,39.88
2019-03-20T11:13:56.333Z,40.33
2019-03-20T11:14:56.318Z,40.97
2019-03-20T11:15:56.304Z,40.97
2019-03-20T11:16:56.315Z,41.86
2019-03-20T11:17:56.298Z,41.03
2019-03-20T11:18:56.275Z,40.41
2019-03-20T11:19:56.465Z,39.80
2019-03-20T11:20:56.250Z,40.83
2019-03-20T11:21:56.246Z,41.86
2019-03-20T11:22:56.228Z,40.61
2019-03-20T11:23:56.228Z,40.29
2019-03-20T11:24:56.208Z,40.12
2019-03-20T11:25:56.216Z,40.31
2019-03-20T11:26:56.186Z,40.67
2019-03-20T11:27:56.176Z,39.95
2019-03-20T11:28:56.222Z,40.15
2019-03-20T11:29:56.159Z,40.41
2019-03-20T11:30:56.142Z,41.68
2019-03-20T11:31:56.131Z,43.23
2019-03-20T11:32:56.122Z,41.91
2019-03-20T11:33:56.106Z,43.14
2019-03-20T11:34:56.112Z,42.94
2019-03-20T11:35:56.089Z,43.20
2019-03-20T11:36:56.090Z,44.87
2019-03-20T11:37:56.144Z,45.38
2019-03-20T11:38:56.054Z,45.07
2019-03-20T11:39:56.042Z,45.26
2019-03-20T11:40:56.040Z,46.36
2019-03-20T11:41:56.020Z,47.05
2019-03-20T11:42:56.008Z,44.99
2019-03-20T11:43:55.999Z,44.44
2019-03-20T11:44:55.988Z,44.01
2019-03-20T11:45:55.982Z,43.29
2019-03-20T11:46:55.970Z,42.88
2019-03-20T11:47:55.962Z,42.46
2019-03-20T11:48:55.953Z,42.74
2019-03-20T11:49:55.932Z,42.43
2019-03-20T11:50:55.944Z,40.51
2019-03-20T11:51:55.910Z,42.35
2019-03-20T11:52:55.910Z,41.86
2019-03-20T11:53:55.898Z,41.31
2019-03-20T11:54:55.876Z,43.59
2019-03-20T11:55:55.868Z,44.53
2019-03-20T11:56:55.854Z,44.83
2019-03-20T11:57:55.856Z,45.42
2019-03-20T11:58:55.848Z,44.79
2019-03-20T11:59:55.833Z,44.56
2019-03-20T12:00:55.816Z,44.04
2019-03-20T12:01:55.816Z,44.70
2019-03-20T12:02:55.802Z,43.38
2019-03-20T12:03:55.795Z,43.06
2019-03-20T12:04:55.778Z,42.55
2019-03-20T12:05:55.759Z,42.03
2019-03-20T12:06:55.744Z,42.25
2019-03-20T12:07:55.731Z,42.03
2019-03-20T12:08:55.726Z,41.12
2019-03-20T12:09:55.732Z,42.05
2019-03-20T12:10:55.724Z,42.47
2019-03-20T12:11:55.696Z,42.90
2019-03-20T12:12:55.683Z,42.82
2019-03-20T12:13:55.719Z,42.82
2019-03-20T12:14:55.668Z,42.84
2019-03-20T12:15:55.684Z,43.32
2019-03-20T12:16:55.648Z,43.84
2019-03-20T12:17:55.628Z,43.43
2019-03-20T12:18:55.616Z,44.65
2019-03-20T12:19:55.609Z,43.32
2019-03-20T12:20:55.602Z,44.42
2019-03-20T12:21:55.584Z,44.12
2019-03-20T12:22:55.584Z,43.10
2019-03-20T12:23:55.566Z,43.91
2019-03-20T12:24:55.561Z,43.99
2019-03-20T12:25:55.541Z,44.30
2019-03-20T12:26:55.533Z,44.10
2019-03-20T12:27:55.540Z,43.29
2019-03-20T12:28:55.510Z,42.57
2019-03-20T12:29:55.494Z,42.37
2019-03-20T12:30:55.492Z,42.47
2019-03-20T12:31:55.478Z,41.66
2019-03-20T12:32:55.474Z,43.06
2019-03-20T12:33:55.467Z,44.27
2019-03-20T12:34:55.438Z,42.46
2019-03-20T12:35:55.430Z,43.16
2019-03-20T12:36:56.595Z,42.05
2019-03-20T12:37:55.410Z,42.94
2019-03-20T12:38:55.398Z,41.54
2019-03-20T12:39:55.386Z,42.47
2019-03-20T12:40:55.382Z,41.97
2019-03-20T12:41:55.366Z,42.09
2019-03-20T12:42:55.354Z,42.88
2019-03-20T12:43:55.346Z,42.57
2019-03-20T12:44:55.332Z,42.46
2019-03-20T12:45:55.320Z,42.33
2019-03-20T12:46:55.310Z,42.94
2019-03-20T12:47:55.296Z,43.14
2019-03-20T12:48:55.294Z,41.80
2019-03-20T12:49:55.296Z,41.50
2019-03-20T12:50:55.265Z,41.20
2019-03-20T12:51:55.258Z,41.44